sensor_id;sensor_type;location;lat;lon;timestamp;P1;durP1;ratioP1;P2;durP2;ratioP2
3847;SDS011;1939;48.720;9.166;2023-04-24T00:02:16;2.07;;;1.30;;
3847;SDS011;1939;48.720;9.166;2023-04-24T00:04:41;4.90;;;1.37;;
3847;SDS011;1939;48.720;9.166;2023-04-24T00:07:09;3.00;;;1.50;;
3847;SDS011;1939;48.720;9.166;2023-04-24T00:09:34;2.20;;;1.30;;
3847;SDS011;1939;48.720;9.166;2023-04-24T00:12:00;1.53;;;1.43;;
3847;SDS011;1939;48.720;9.166;2023-04-24T00:14:27;4.10;;;1.37;;
3847;SDS011;1939;48.720;9.166;2023-04-24T00:16:52;1.73;;;1.27;;
3847;SDS011;1939;48.720;9.166;2023-04-24T00:19:17;1.17;;;1.07;;
3847;SDS011;1939;48.720;9.166;2023-04-24T00:21:46;1.83;;;1.10;;
3847;SDS011;1939;48.720;9.166;2023-04-24T00:24:11;3.70;;;1.40;;
3847;SDS011;1939;48.720;9.166;2023-04-24T00:26:36;1.30;;;1.20;;
3847;SDS011;1939;48.720;9.166;2023-04-24T00:29:01;1.87;;;1.23;;
3847;SDS011;1939;48.720;9.166;2023-04-24T00:31:27;4.90;;;0.80;;
3847;SDS011;1939;48.720;9.166;2023-04-24T00:33:52;4.60;;;1.20;;
3847;SDS011;1939;48.720;9.166;2023-04-24T00:36:17;1.10;;;1.00;;
3847;SDS011;1939;48.720;9.166;2023-04-24T00:38:45;1.43;;;1.10;;
3847;SDS011;1939;48.720;9.166;2023-04-24T00:41:10;1.97;;;1.27;;
3847;SDS011;1939;48.720;9.166;2023-04-24T00:43:36;5.43;;;1.10;;
3847;SDS011;1939;48.720;9.166;2023-04-24T00:46:01;3.73;;;1.53;;
3847;SDS011;1939;48.720;9.166;2023-04-24T00:48:26;1.90;;;1.07;;
3847;SDS011;1939;48.720;9.166;2023-04-24T00:50:52;7.27;;;1.10;;
3847;SDS011;1939;48.720;9.166;2023-04-24T00:53:17;1.90;;;1.10;;
3847;SDS011;1939;48.720;9.166;2023-04-24T00:55:43;3.13;;;1.00;;
3847;SDS011;1939;48.720;9.166;2023-04-24T00:58:08;1.53;;;0.90;;
3847;SDS011;1939;48.720;9.166;2023-04-24T01:00:33;1.57;;;1.20;;
3847;SDS011;1939;48.720;9.166;2023-04-24T01:02:59;2.70;;;0.93;;
3847;SDS011;1939;48.720;9.166;2023-04-24T01:05:25;1.50;;;1.10;;
3847;SDS011;1939;48.720;9.166;2023-04-24T01:07:51;4.53;;;1.17;;
3847;SDS011;1939;48.720;9.166;2023-04-24T01:10:16;1.03;;;0.93;;
3847;SDS011;1939;48.720;9.166;2023-04-24T01:12:42;3.60;;;0.90;;
3847;SDS011;1939;48.720;9.166;2023-04-24T01:15:08;3.50;;;1.13;;
3847;SDS011;1939;48.720;9.166;2023-04-24T01:17:33;2.10;;;0.73;;
3847;SDS011;1939;48.720;9.166;2023-04-24T01:20:01;0.90;;;0.80;;
3847;SDS011;1939;48.720;9.166;2023-04-24T01:22:30;1.43;;;0.80;;
3847;SDS011;1939;48.720;9.166;2023-04-24T01:24:55;1.47;;;1.17;;
3847;SDS011;1939;48.720;9.166;2023-04-24T01:27:21;1.40;;;1.00;;
3847;SDS011;1939;48.720;9.166;2023-04-24T01:29:46;8.73;;;0.90;;
3847;SDS011;1939;48.720;9.166;2023-04-24T01:32:14;3.87;;;0.67;;
3847;SDS011;1939;48.720;9.166;2023-04-24T01:34:40;3.53;;;0.87;;
3847;SDS011;1939;48.720;9.166;2023-04-24T01:37:05;1.13;;;0.87;;
3847;SDS011;1939;48.720;9.166;2023-04-24T01:39:31;1.10;;;0.73;;
3847;SDS011;1939;48.720;9.166;2023-04-24T01:41:56;2.60;;;1.00;;
3847;SDS011;1939;48.720;9.166;2023-04-24T01:44:22;3.43;;;0.87;;
3847;SDS011;1939;48.720;9.166;2023-04-24T01:46:47;2.00;;;1.07;;
3847;SDS011;1939;48.720;9.166;2023-04-24T01:49:13;1.20;;;0.87;;
3847;SDS011;1939;48.720;9.166;2023-04-24T01:51:38;2.60;;;0.87;;
3847;SDS011;1939;48.720;9.166;2023-04-24T01:54:03;4.37;;;1.43;;
3847;SDS011;1939;48.720;9.166;2023-04-24T01:56:30;1.10;;;1.00;;
3847;SDS011;1939;48.720;9.166;2023-04-24T01:58:56;1.43;;;1.30;;
3847;SDS011;1939;48.720;9.166;2023-04-24T02:01:23;5.37;;;1.43;;
3847;SDS011;1939;48.720;9.166;2023-04-24T02:03:48;2.43;;;1.10;;
3847;SDS011;1939;48.720;9.166;2023-04-24T02:06:13;4.97;;;1.10;;
3847;SDS011;1939;48.720;9.166;2023-04-24T02:08:39;5.70;;;0.90;;
3847;SDS011;1939;48.720;9.166;2023-04-24T02:11:04;2.00;;;1.17;;
3847;SDS011;1939;48.720;9.166;2023-04-24T02:13:30;1.80;;;1.07;;
3847;SDS011;1939;48.720;9.166;2023-04-24T02:15:56;3.40;;;2.23;;
3847;SDS011;1939;48.720;9.166;2023-04-24T02:18:22;3.13;;;0.97;;
3847;SDS011;1939;48.720;9.166;2023-04-24T02:20:48;2.90;;;1.30;;
3847;SDS011;1939;48.720;9.166;2023-04-24T02:23:13;4.40;;;1.07;;
3847;SDS011;1939;48.720;9.166;2023-04-24T02:25:38;1.10;;;0.90;;
3847;SDS011;1939;48.720;9.166;2023-04-24T02:28:03;2.17;;;1.10;;
3847;SDS011;1939;48.720;9.166;2023-04-24T02:30:29;2.50;;;1.23;;
3847;SDS011;1939;48.720;9.166;2023-04-24T02:32:54;5.00;;;1.03;;
3847;SDS011;1939;48.720;9.166;2023-04-24T02:35:20;1.40;;;1.00;;
3847;SDS011;1939;48.720;9.166;2023-04-24T02:37:45;2.10;;;0.90;;
3847;SDS011;1939;48.720;9.166;2023-04-24T02:40:11;9.90;;;1.40;;
3847;SDS011;1939;48.720;9.166;2023-04-24T02:42:36;3.63;;;1.10;;
3847;SDS011;1939;48.720;9.166;2023-04-24T02:45:01;5.93;;;1.13;;
3847;SDS011;1939;48.720;9.166;2023-04-24T02:47:26;1.30;;;0.97;;
3847;SDS011;1939;48.720;9.166;2023-04-24T02:49:51;1.10;;;0.80;;
3847;SDS011;1939;48.720;9.166;2023-04-24T02:52:17;2.17;;;0.83;;
3847;SDS011;1939;48.720;9.166;2023-04-24T02:54:42;1.47;;;0.80;;
3847;SDS011;1939;48.720;9.166;2023-04-24T02:57:08;1.93;;;0.90;;
3847;SDS011;1939;48.720;9.166;2023-04-24T02:59:33;1.60;;;1.27;;
3847;SDS011;1939;48.720;9.166;2023-04-24T03:01:59;1.10;;;1.00;;
3847;SDS011;1939;48.720;9.166;2023-04-24T03:04:24;2.03;;;0.90;;
3847;SDS011;1939;48.720;9.166;2023-04-24T03:06:49;1.70;;;1.07;;
3847;SDS011;1939;48.720;9.166;2023-04-24T03:09:18;2.60;;;1.43;;
3847;SDS011;1939;48.720;9.166;2023-04-24T03:11:43;4.83;;;2.13;;
3847;SDS011;1939;48.720;9.166;2023-04-24T03:14:08;2.80;;;1.20;;
3847;SDS011;1939;48.720;9.166;2023-04-24T03:16:33;1.23;;;0.90;;
3847;SDS011;1939;48.720;9.166;2023-04-24T03:18:59;1.67;;;1.20;;
3847;SDS011;1939;48.720;9.166;2023-04-24T03:21:24;1.87;;;0.87;;
3847;SDS011;1939;48.720;9.166;2023-04-24T03:23:49;2.10;;;0.77;;
3847;SDS011;1939;48.720;9.166;2023-04-24T03:26:14;1.40;;;1.23;;
3847;SDS011;1939;48.720;9.166;2023-04-24T03:28:40;3.80;;;1.10;;
3847;SDS011;1939;48.720;9.166;2023-04-24T03:31:05;2.30;;;1.13;;
3847;SDS011;1939;48.720;9.166;2023-04-24T03:33:31;1.60;;;1.20;;
3847;SDS011;1939;48.720;9.166;2023-04-24T03:35:56;1.10;;;0.93;;
3847;SDS011;1939;48.720;9.166;2023-04-24T03:38:21;9.20;;;1.13;;
3847;SDS011;1939;48.720;9.166;2023-04-24T03:40:46;1.43;;;1.07;;
3847;SDS011;1939;48.720;9.166;2023-04-24T03:43:11;2.20;;;0.97;;
3847;SDS011;1939;48.720;9.166;2023-04-24T03:45:37;2.87;;;1.43;;
3847;SDS011;1939;48.720;9.166;2023-04-24T03:48:02;3.17;;;0.93;;
3847;SDS011;1939;48.720;9.166;2023-04-24T03:50:27;1.27;;;1.13;;
3847;SDS011;1939;48.720;9.166;2023-04-24T03:52:54;2.03;;;1.10;;
3847;SDS011;1939;48.720;9.166;2023-04-24T03:55:19;3.43;;;1.40;;
3847;SDS011;1939;48.720;9.166;2023-04-24T03:57:44;6.50;;;3.30;;
3847;SDS011;1939;48.720;9.166;2023-04-24T04:00:10;5.27;;;2.70;;
3847;SDS011;1939;48.720;9.166;2023-04-24T04:02:37;10.43;;;1.53;;
3847;SDS011;1939;48.720;9.166;2023-04-24T04:05:02;3.90;;;1.00;;
3847;SDS011;1939;48.720;9.166;2023-04-24T04:07:27;1.23;;;0.87;;
3847;SDS011;1939;48.720;9.166;2023-04-24T04:09:54;2.60;;;1.10;;
3847;SDS011;1939;48.720;9.166;2023-04-24T04:12:19;2.10;;;1.40;;
3847;SDS011;1939;48.720;9.166;2023-04-24T04:14:45;2.63;;;1.03;;
3847;SDS011;1939;48.720;9.166;2023-04-24T04:17:10;7.33;;;1.00;;
3847;SDS011;1939;48.720;9.166;2023-04-24T04:19:35;1.17;;;1.07;;
3847;SDS011;1939;48.720;9.166;2023-04-24T04:22:01;1.37;;;1.13;;
3847;SDS011;1939;48.720;9.166;2023-04-24T04:24:26;3.83;;;1.10;;
3847;SDS011;1939;48.720;9.166;2023-04-24T04:26:51;1.23;;;0.83;;
3847;SDS011;1939;48.720;9.166;2023-04-24T04:29:17;2.07;;;1.13;;
3847;SDS011;1939;48.720;9.166;2023-04-24T04:31:43;1.93;;;0.90;;
3847;SDS011;1939;48.720;9.166;2023-04-24T04:34:08;0.87;;;0.87;;
3847;SDS011;1939;48.720;9.166;2023-04-24T04:36:34;1.97;;;1.30;;
3847;SDS011;1939;48.720;9.166;2023-04-24T04:39:02;1.70;;;1.40;;
3847;SDS011;1939;48.720;9.166;2023-04-24T04:41:28;3.33;;;2.37;;
3847;SDS011;1939;48.720;9.166;2023-04-24T04:43:54;2.73;;;1.80;;
3847;SDS011;1939;48.720;9.166;2023-04-24T04:46:19;2.03;;;1.50;;
3847;SDS011;1939;48.720;9.166;2023-04-24T04:48:45;4.03;;;1.83;;
3847;SDS011;1939;48.720;9.166;2023-04-24T04:51:10;2.47;;;1.87;;
3847;SDS011;1939;48.720;9.166;2023-04-24T04:53:36;7.63;;;1.90;;
3847;SDS011;1939;48.720;9.166;2023-04-24T04:56:01;5.60;;;3.03;;
3847;SDS011;1939;48.720;9.166;2023-04-24T04:58:26;4.57;;;3.20;;
3847;SDS011;1939;48.720;9.166;2023-04-24T05:00:51;4.67;;;4.00;;
3847;SDS011;1939;48.720;9.166;2023-04-24T05:03:17;3.70;;;1.77;;
3847;SDS011;1939;48.720;9.166;2023-04-24T05:05:42;2.30;;;2.00;;
3847;SDS011;1939;48.720;9.166;2023-04-24T05:08:07;9.40;;;1.93;;
3847;SDS011;1939;48.720;9.166;2023-04-24T05:10:33;2.33;;;1.80;;
3847;SDS011;1939;48.720;9.166;2023-04-24T05:12:58;6.00;;;1.90;;
3847;SDS011;1939;48.720;9.166;2023-04-24T05:15:24;2.73;;;2.30;;
3847;SDS011;1939;48.720;9.166;2023-04-24T05:17:49;7.20;;;3.83;;
3847;SDS011;1939;48.720;9.166;2023-04-24T05:20:15;3.83;;;1.73;;
3847;SDS011;1939;48.720;9.166;2023-04-24T05:22:40;9.33;;;2.60;;
3847;SDS011;1939;48.720;9.166;2023-04-24T05:25:05;3.40;;;1.80;;
3847;SDS011;1939;48.720;9.166;2023-04-24T05:27:30;3.53;;;2.00;;
3847;SDS011;1939;48.720;9.166;2023-04-24T05:29:56;3.20;;;2.03;;
3847;SDS011;1939;48.720;9.166;2023-04-24T05:32:21;4.40;;;2.43;;
3847;SDS011;1939;48.720;9.166;2023-04-24T05:34:46;6.87;;;3.50;;
3847;SDS011;1939;48.720;9.166;2023-04-24T05:37:12;5.10;;;2.80;;
3847;SDS011;1939;48.720;9.166;2023-04-24T05:39:37;3.43;;;2.13;;
3847;SDS011;1939;48.720;9.166;2023-04-24T05:42:03;3.57;;;1.87;;
3847;SDS011;1939;48.720;9.166;2023-04-24T05:44:29;2.23;;;1.83;;
3847;SDS011;1939;48.720;9.166;2023-04-24T05:46:55;4.03;;;2.70;;
3847;SDS011;1939;48.720;9.166;2023-04-24T05:49:23;3.50;;;2.10;;
3847;SDS011;1939;48.720;9.166;2023-04-24T05:51:48;2.77;;;2.07;;
3847;SDS011;1939;48.720;9.166;2023-04-24T05:54:13;3.40;;;3.00;;
3847;SDS011;1939;48.720;9.166;2023-04-24T05:56:39;4.57;;;2.20;;
3847;SDS011;1939;48.720;9.166;2023-04-24T05:59:04;7.80;;;2.17;;
3847;SDS011;1939;48.720;9.166;2023-04-24T06:01:30;5.40;;;3.10;;
3847;SDS011;1939;48.720;9.166;2023-04-24T06:03:56;3.93;;;2.57;;
3847;SDS011;1939;48.720;9.166;2023-04-24T06:06:21;3.23;;;2.03;;
3847;SDS011;1939;48.720;9.166;2023-04-24T06:08:47;2.70;;;2.13;;
3847;SDS011;1939;48.720;9.166;2023-04-24T06:11:12;4.43;;;2.33;;
3847;SDS011;1939;48.720;9.166;2023-04-24T06:13:37;7.53;;;2.40;;
3847;SDS011;1939;48.720;9.166;2023-04-24T06:16:02;3.27;;;2.30;;
3847;SDS011;1939;48.720;9.166;2023-04-24T06:18:28;3.80;;;1.87;;
3847;SDS011;1939;48.720;9.166;2023-04-24T06:20:53;3.57;;;2.30;;
3847;SDS011;1939;48.720;9.166;2023-04-24T06:23:18;2.50;;;2.30;;
3847;SDS011;1939;48.720;9.166;2023-04-24T06:25:43;7.20;;;2.40;;
3847;SDS011;1939;48.720;9.166;2023-04-24T06:28:09;3.17;;;1.77;;
3847;SDS011;1939;48.720;9.166;2023-04-24T06:30:34;4.87;;;2.30;;
3847;SDS011;1939;48.720;9.166;2023-04-24T06:32:59;2.60;;;1.53;;
3847;SDS011;1939;48.720;9.166;2023-04-24T06:35:24;5.43;;;1.77;;
3847;SDS011;1939;48.720;9.166;2023-04-24T06:37:50;3.00;;;1.83;;
3847;SDS011;1939;48.720;9.166;2023-04-24T06:40:16;1.57;;;1.47;;
3847;SDS011;1939;48.720;9.166;2023-04-24T06:42:43;1.37;;;1.00;;
3847;SDS011;1939;48.720;9.166;2023-04-24T06:45:08;7.13;;;1.40;;
3847;SDS011;1939;48.720;9.166;2023-04-24T06:47:34;1.57;;;1.17;;
3847;SDS011;1939;48.720;9.166;2023-04-24T06:49:59;2.33;;;1.37;;
3847;SDS011;1939;48.720;9.166;2023-04-24T06:52:24;2.13;;;1.40;;
3847;SDS011;1939;48.720;9.166;2023-04-24T06:54:50;2.40;;;1.60;;
3847;SDS011;1939;48.720;9.166;2023-04-24T06:57:15;1.33;;;1.20;;
3847;SDS011;1939;48.720;9.166;2023-04-24T06:59:43;2.03;;;1.30;;
3847;SDS011;1939;48.720;9.166;2023-04-24T07:02:08;1.47;;;1.20;;
3847;SDS011;1939;48.720;9.166;2023-04-24T07:04:33;2.20;;;1.47;;
3847;SDS011;1939;48.720;9.166;2023-04-24T07:06:59;2.00;;;1.60;;
3847;SDS011;1939;48.720;9.166;2023-04-24T07:09:24;1.87;;;1.50;;
3847;SDS011;1939;48.720;9.166;2023-04-24T07:11:50;2.07;;;1.87;;
3847;SDS011;1939;48.720;9.166;2023-04-24T07:14:16;2.87;;;1.77;;
3847;SDS011;1939;48.720;9.166;2023-04-24T07:16:42;1.90;;;1.70;;
3847;SDS011;1939;48.720;9.166;2023-04-24T07:19:07;2.60;;;1.97;;
3847;SDS011;1939;48.720;9.166;2023-04-24T07:21:32;3.73;;;1.80;;
3847;SDS011;1939;48.720;9.166;2023-04-24T07:23:58;2.93;;;1.50;;
3847;SDS011;1939;48.720;9.166;2023-04-24T07:26:23;2.70;;;1.80;;
3847;SDS011;1939;48.720;9.166;2023-04-24T07:28:48;1.63;;;1.50;;
3847;SDS011;1939;48.720;9.166;2023-04-24T07:31:14;3.30;;;1.60;;
3847;SDS011;1939;48.720;9.166;2023-04-24T07:33:39;4.53;;;2.60;;
3847;SDS011;1939;48.720;9.166;2023-04-24T07:36:05;2.53;;;1.30;;
3847;SDS011;1939;48.720;9.166;2023-04-24T07:38:30;1.40;;;1.30;;
3847;SDS011;1939;48.720;9.166;2023-04-24T07:40:55;2.47;;;1.40;;
3847;SDS011;1939;48.720;9.166;2023-04-24T07:43:20;2.87;;;1.60;;
3847;SDS011;1939;48.720;9.166;2023-04-24T07:45:46;1.30;;;1.20;;
3847;SDS011;1939;48.720;9.166;2023-04-24T07:48:11;3.60;;;1.33;;
3847;SDS011;1939;48.720;9.166;2023-04-24T07:50:39;4.90;;;1.30;;
3847;SDS011;1939;48.720;9.166;2023-04-24T07:53:04;2.03;;;0.97;;
3847;SDS011;1939;48.720;9.166;2023-04-24T07:55:30;1.40;;;1.30;;
3847;SDS011;1939;48.720;9.166;2023-04-24T07:57:55;1.83;;;1.20;;
3847;SDS011;1939;48.720;9.166;2023-04-24T08:00:20;1.30;;;1.20;;
3847;SDS011;1939;48.720;9.166;2023-04-24T08:02:46;1.40;;;1.30;;
3847;SDS011;1939;48.720;9.166;2023-04-24T08:05:11;1.27;;;1.00;;
3847;SDS011;1939;48.720;9.166;2023-04-24T08:07:36;1.70;;;1.60;;
3847;SDS011;1939;48.720;9.166;2023-04-24T08:10:01;3.20;;;1.60;;
3847;SDS011;1939;48.720;9.166;2023-04-24T08:12:28;2.20;;;2.00;;
3847;SDS011;1939;48.720;9.166;2023-04-24T08:14:53;3.30;;;1.80;;
3847;SDS011;1939;48.720;9.166;2023-04-24T08:17:18;3.17;;;1.67;;
3847;SDS011;1939;48.720;9.166;2023-04-24T08:19:44;2.87;;;2.20;;
3847;SDS011;1939;48.720;9.166;2023-04-24T08:22:13;2.20;;;1.67;;
3847;SDS011;1939;48.720;9.166;2023-04-24T08:24:38;1.80;;;1.57;;
3847;SDS011;1939;48.720;9.166;2023-04-24T08:27:03;8.87;;;3.10;;
3847;SDS011;1939;48.720;9.166;2023-04-24T08:29:28;3.90;;;1.30;;
3847;SDS011;1939;48.720;9.166;2023-04-24T08:31:54;2.07;;;1.53;;
3847;SDS011;1939;48.720;9.166;2023-04-24T08:34:20;1.80;;;1.33;;
3847;SDS011;1939;48.720;9.166;2023-04-24T08:36:45;1.93;;;0.93;;
3847;SDS011;1939;48.720;9.166;2023-04-24T08:39:10;5.43;;;1.47;;
3847;SDS011;1939;48.720;9.166;2023-04-24T08:41:36;1.57;;;1.33;;
3847;SDS011;1939;48.720;9.166;2023-04-24T08:44:02;4.13;;;2.00;;
3847;SDS011;1939;48.720;9.166;2023-04-24T08:46:28;1.10;;;1.00;;
3847;SDS011;1939;48.720;9.166;2023-04-24T08:48:54;4.20;;;1.53;;
3847;SDS011;1939;48.720;9.166;2023-04-24T08:51:20;3.30;;;1.37;;
3847;SDS011;1939;48.720;9.166;2023-04-24T08:53:46;2.13;;;1.23;;
3847;SDS011;1939;48.720;9.166;2023-04-24T08:56:11;2.63;;;1.83;;
3847;SDS011;1939;48.720;9.166;2023-04-24T08:58:37;2.97;;;1.60;;
3847;SDS011;1939;48.720;9.166;2023-04-24T09:01:03;3.00;;;1.60;;
3847;SDS011;1939;48.720;9.166;2023-04-24T09:03:29;2.70;;;1.60;;
3847;SDS011;1939;48.720;9.166;2023-04-24T09:05:55;3.10;;;1.83;;
3847;SDS011;1939;48.720;9.166;2023-04-24T09:08:20;2.20;;;1.47;;
3847;SDS011;1939;48.720;9.166;2023-04-24T09:10:48;4.07;;;1.70;;
3847;SDS011;1939;48.720;9.166;2023-04-24T09:13:14;3.07;;;1.33;;
3847;SDS011;1939;48.720;9.166;2023-04-24T09:15:39;2.17;;;1.93;;
3847;SDS011;1939;48.720;9.166;2023-04-24T09:18:05;3.40;;;3.00;;
3847;SDS011;1939;48.720;9.166;2023-04-24T09:20:30;9.40;;;2.00;;
3847;SDS011;1939;48.720;9.166;2023-04-24T09:22:59;2.87;;;1.70;;
3847;SDS011;1939;48.720;9.166;2023-04-24T09:25:31;3.40;;;1.50;;
3847;SDS011;1939;48.720;9.166;2023-04-24T09:27:59;2.00;;;1.53;;
3847;SDS011;1939;48.720;9.166;2023-04-24T09:30:25;1.70;;;1.60;;
3847;SDS011;1939;48.720;9.166;2023-04-24T09:32:52;2.00;;;1.60;;
3847;SDS011;1939;48.720;9.166;2023-04-24T09:35:34;3.40;;;1.63;;
3847;SDS011;1939;48.720;9.166;2023-04-24T09:37:59;3.00;;;1.60;;
3847;SDS011;1939;48.720;9.166;2023-04-24T09:40:25;1.77;;;1.20;;
3847;SDS011;1939;48.720;9.166;2023-04-24T09:42:54;1.27;;;0.80;;
3847;SDS011;1939;48.720;9.166;2023-04-24T09:45:20;2.00;;;1.20;;
3847;SDS011;1939;48.720;9.166;2023-04-24T09:47:45;1.47;;;0.90;;
3847;SDS011;1939;48.720;9.166;2023-04-24T09:52:39;2.77;;;1.30;;
3847;SDS011;1939;48.720;9.166;2023-04-24T09:55:10;1.10;;;0.80;;
3847;SDS011;1939;48.720;9.166;2023-04-24T09:57:35;2.50;;;0.90;;
3847;SDS011;1939;48.720;9.166;2023-04-24T10:00:00;1.57;;;1.27;;
3847;SDS011;1939;48.720;9.166;2023-04-24T10:02:25;3.50;;;1.60;;
3847;SDS011;1939;48.720;9.166;2023-04-24T10:04:54;2.50;;;2.20;;
3847;SDS011;1939;48.720;9.166;2023-04-24T10:07:27;1.00;;;0.87;;
3847;SDS011;1939;48.720;9.166;2023-04-24T10:09:52;1.43;;;1.30;;
3847;SDS011;1939;48.720;9.166;2023-04-24T10:12:18;2.50;;;1.30;;
3847;SDS011;1939;48.720;9.166;2023-04-24T10:14:44;3.40;;;1.20;;
3847;SDS011;1939;48.720;9.166;2023-04-24T10:17:10;3.07;;;1.50;;
3847;SDS011;1939;48.720;9.166;2023-04-24T10:19:35;3.00;;;1.73;;
3847;SDS011;1939;48.720;9.166;2023-04-24T10:22:02;1.30;;;1.20;;
3847;SDS011;1939;48.720;9.166;2023-04-24T10:24:28;2.10;;;1.07;;
3847;SDS011;1939;48.720;9.166;2023-04-24T10:26:53;1.50;;;1.00;;
3847;SDS011;1939;48.720;9.166;2023-04-24T10:29:18;0.87;;;0.80;;
3847;SDS011;1939;48.720;9.166;2023-04-24T10:31:44;1.83;;;1.00;;
3847;SDS011;1939;48.720;9.166;2023-04-24T10:34:10;1.60;;;1.13;;
3847;SDS011;1939;48.720;9.166;2023-04-24T10:36:37;1.47;;;1.13;;
3847;SDS011;1939;48.720;9.166;2023-04-24T10:39:05;1.30;;;0.90;;
3847;SDS011;1939;48.720;9.166;2023-04-24T10:41:31;1.37;;;0.90;;
3847;SDS011;1939;48.720;9.166;2023-04-24T10:44:06;2.70;;;1.23;;
3847;SDS011;1939;48.720;9.166;2023-04-24T10:46:32;1.20;;;1.00;;
3847;SDS011;1939;48.720;9.166;2023-04-24T10:48:57;2.97;;;0.97;;
3847;SDS011;1939;48.720;9.166;2023-04-24T10:51:23;1.43;;;1.20;;
3847;SDS011;1939;48.720;9.166;2023-04-24T10:53:52;1.43;;;1.27;;
3847;SDS011;1939;48.720;9.166;2023-04-24T10:56:17;1.07;;;0.93;;
3847;SDS011;1939;48.720;9.166;2023-04-24T10:58:50;3.67;;;1.10;;
3847;SDS011;1939;48.720;9.166;2023-04-24T11:01:24;1.17;;;0.83;;
3847;SDS011;1939;48.720;9.166;2023-04-24T11:03:54;0.87;;;0.80;;
3847;SDS011;1939;48.720;9.166;2023-04-24T11:06:26;3.37;;;1.03;;
3847;SDS011;1939;48.720;9.166;2023-04-24T11:08:57;3.53;;;1.30;;
3847;SDS011;1939;48.720;9.166;2023-04-24T11:11:23;1.40;;;1.10;;
3847;SDS011;1939;48.720;9.166;2023-04-24T11:16:24;1.90;;;1.23;;
3847;SDS011;1939;48.720;9.166;2023-04-24T11:19:51;1.87;;;1.10;;
3847;SDS011;1939;48.720;9.166;2023-04-24T11:21:46;2.53;;;1.40;;
3847;SDS011;1939;48.720;9.166;2023-04-24T11:24:28;6.00;;;1.63;;
3847;SDS011;1939;48.720;9.166;2023-04-24T11:27:05;2.30;;;1.40;;
3847;SDS011;1939;48.720;9.166;2023-04-24T11:29:38;2.30;;;1.33;;
3847;SDS011;1939;48.720;9.166;2023-04-24T11:34:45;4.20;;;1.60;;
3847;SDS011;1939;48.720;9.166;2023-04-24T11:37:10;1.53;;;1.27;;
3847;SDS011;1939;48.720;9.166;2023-04-24T11:39:36;2.67;;;1.27;;
3847;SDS011;1939;48.720;9.166;2023-04-24T11:42:02;1.60;;;1.13;;
3847;SDS011;1939;48.720;9.166;2023-04-24T11:44:27;1.70;;;1.17;;
3847;SDS011;1939;48.720;9.166;2023-04-24T11:46:55;3.13;;;1.33;;
3847;SDS011;1939;48.720;9.166;2023-04-24T11:49:20;2.20;;;1.37;;
3847;SDS011;1939;48.720;9.166;2023-04-24T11:51:45;1.70;;;1.30;;
3847;SDS011;1939;48.720;9.166;2023-04-24T11:54:11;2.50;;;1.67;;
3847;SDS011;1939;48.720;9.166;2023-04-24T11:56:36;2.83;;;1.43;;
3847;SDS011;1939;48.720;9.166;2023-04-24T11:59:03;1.83;;;1.20;;
3847;SDS011;1939;48.720;9.166;2023-04-24T12:01:29;4.03;;;1.20;;
3847;SDS011;1939;48.720;9.166;2023-04-24T12:03:59;2.60;;;1.20;;
3847;SDS011;1939;48.720;9.166;2023-04-24T12:06:24;11.33;;;1.40;;
3847;SDS011;1939;48.720;9.166;2023-04-24T12:08:50;1.30;;;1.20;;
3847;SDS011;1939;48.720;9.166;2023-04-24T12:11:17;4.67;;;1.37;;
3847;SDS011;1939;48.720;9.166;2023-04-24T12:13:43;1.47;;;1.20;;
3847;SDS011;1939;48.720;9.166;2023-04-24T12:16:08;1.37;;;1.17;;
3847;SDS011;1939;48.720;9.166;2023-04-24T12:18:34;1.50;;;1.40;;
3847;SDS011;1939;48.720;9.166;2023-04-24T12:21:21;3.10;;;1.00;;
3847;SDS011;1939;48.720;9.166;2023-04-24T12:23:47;2.00;;;1.57;;
3847;SDS011;1939;48.720;9.166;2023-04-24T12:26:15;1.60;;;1.27;;
3847;SDS011;1939;48.720;9.166;2023-04-24T12:28:41;1.70;;;1.30;;
3847;SDS011;1939;48.720;9.166;2023-04-24T12:31:06;3.03;;;1.20;;
3847;SDS011;1939;48.720;9.166;2023-04-24T12:33:32;2.23;;;1.97;;
3847;SDS011;1939;48.720;9.166;2023-04-24T12:35:58;3.50;;;1.63;;
3847;SDS011;1939;48.720;9.166;2023-04-24T12:38:25;1.80;;;1.33;;
3847;SDS011;1939;48.720;9.166;2023-04-24T12:41:03;2.10;;;1.13;;
3847;SDS011;1939;48.720;9.166;2023-04-24T12:43:29;1.77;;;1.40;;
3847;SDS011;1939;48.720;9.166;2023-04-24T12:45:54;2.70;;;1.33;;
3847;SDS011;1939;48.720;9.166;2023-04-24T12:48:20;2.33;;;1.70;;
3847;SDS011;1939;48.720;9.166;2023-04-24T12:50:46;3.33;;;1.50;;
3847;SDS011;1939;48.720;9.166;2023-04-24T12:53:11;1.40;;;1.30;;
3847;SDS011;1939;48.720;9.166;2023-04-24T12:55:36;2.90;;;1.30;;
3847;SDS011;1939;48.720;9.166;2023-04-24T12:58:01;1.30;;;1.00;;
3847;SDS011;1939;48.720;9.166;2023-04-24T13:00:28;1.93;;;1.40;;
3847;SDS011;1939;48.720;9.166;2023-04-24T13:02:53;2.80;;;1.40;;
3847;SDS011;1939;48.720;9.166;2023-04-24T13:05:19;1.77;;;1.50;;
3847;SDS011;1939;48.720;9.166;2023-04-24T13:07:44;1.80;;;1.27;;
3847;SDS011;1939;48.720;9.166;2023-04-24T13:10:09;2.50;;;1.80;;
3847;SDS011;1939;48.720;9.166;2023-04-24T13:12:35;2.70;;;1.13;;
3847;SDS011;1939;48.720;9.166;2023-04-24T13:15:00;2.70;;;1.50;;
3847;SDS011;1939;48.720;9.166;2023-04-24T13:17:25;4.57;;;1.60;;
3847;SDS011;1939;48.720;9.166;2023-04-24T13:19:51;4.10;;;1.63;;
3847;SDS011;1939;48.720;9.166;2023-04-24T13:22:16;3.27;;;2.13;;
3847;SDS011;1939;48.720;9.166;2023-04-24T13:24:43;1.80;;;1.40;;
3847;SDS011;1939;48.720;9.166;2023-04-24T13:27:09;2.00;;;1.67;;
3847;SDS011;1939;48.720;9.166;2023-04-24T13:29:34;2.63;;;1.80;;
3847;SDS011;1939;48.720;9.166;2023-04-24T13:32:00;1.60;;;1.50;;
3847;SDS011;1939;48.720;9.166;2023-04-24T13:34:25;2.10;;;1.43;;
3847;SDS011;1939;48.720;9.166;2023-04-24T13:36:54;2.70;;;1.37;;
3847;SDS011;1939;48.720;9.166;2023-04-24T13:39:20;1.40;;;1.30;;
3847;SDS011;1939;48.720;9.166;2023-04-24T13:41:45;1.37;;;1.20;;
3847;SDS011;1939;48.720;9.166;2023-04-24T13:44:12;2.40;;;1.73;;
3847;SDS011;1939;48.720;9.166;2023-04-24T13:46:38;1.87;;;1.50;;
3847;SDS011;1939;48.720;9.166;2023-04-24T13:49:03;2.20;;;1.97;;
3847;SDS011;1939;48.720;9.166;2023-04-24T13:51:32;3.47;;;1.77;;
3847;SDS011;1939;48.720;9.166;2023-04-24T13:53:57;2.40;;;2.20;;
3847;SDS011;1939;48.720;9.166;2023-04-24T13:56:22;5.63;;;3.30;;
3847;SDS011;1939;48.720;9.166;2023-04-24T13:58:48;4.70;;;2.80;;
3847;SDS011;1939;48.720;9.166;2023-04-24T14:01:13;5.47;;;2.97;;
3847;SDS011;1939;48.720;9.166;2023-04-24T14:03:39;4.83;;;2.57;;
3847;SDS011;1939;48.720;9.166;2023-04-24T14:06:05;2.90;;;1.50;;
3847;SDS011;1939;48.720;9.166;2023-04-24T14:08:31;2.63;;;1.90;;
3847;SDS011;1939;48.720;9.166;2023-04-24T14:10:56;1.60;;;1.50;;
3847;SDS011;1939;48.720;9.166;2023-04-24T14:13:21;2.53;;;1.97;;
3847;SDS011;1939;48.720;9.166;2023-04-24T14:15:47;2.63;;;1.77;;
3847;SDS011;1939;48.720;9.166;2023-04-24T14:18:12;1.80;;;1.70;;
3847;SDS011;1939;48.720;9.166;2023-04-24T14:20:37;9.10;;;2.70;;
3847;SDS011;1939;48.720;9.166;2023-04-24T14:23:03;4.60;;;1.90;;
3847;SDS011;1939;48.720;9.166;2023-04-24T14:25:29;2.43;;;1.67;;
3847;SDS011;1939;48.720;9.166;2023-04-24T14:27:54;2.17;;;1.70;;
3847;SDS011;1939;48.720;9.166;2023-04-24T14:30:20;3.60;;;1.97;;
3847;SDS011;1939;48.720;9.166;2023-04-24T14:32:45;3.00;;;2.23;;
3847;SDS011;1939;48.720;9.166;2023-04-24T14:35:11;5.17;;;2.27;;
3847;SDS011;1939;48.720;9.166;2023-04-24T14:37:36;3.50;;;2.37;;
3847;SDS011;1939;48.720;9.166;2023-04-24T14:40:02;4.00;;;2.10;;
3847;SDS011;1939;48.720;9.166;2023-04-24T14:42:27;3.63;;;2.30;;
3847;SDS011;1939;48.720;9.166;2023-04-24T14:44:53;6.17;;;2.30;;
3847;SDS011;1939;48.720;9.166;2023-04-24T14:47:19;2.27;;;2.07;;
3847;SDS011;1939;48.720;9.166;2023-04-24T14:49:46;2.47;;;2.20;;
3847;SDS011;1939;48.720;9.166;2023-04-24T14:52:11;3.13;;;2.60;;
3847;SDS011;1939;48.720;9.166;2023-04-24T14:54:37;3.07;;;2.53;;
3847;SDS011;1939;48.720;9.166;2023-04-24T14:57:02;2.40;;;2.20;;
3847;SDS011;1939;48.720;9.166;2023-04-24T14:59:27;3.33;;;2.27;;
3847;SDS011;1939;48.720;9.166;2023-04-24T15:01:53;3.93;;;2.37;;
3847;SDS011;1939;48.720;9.166;2023-04-24T15:04:22;3.00;;;2.50;;
3847;SDS011;1939;48.720;9.166;2023-04-24T15:06:48;2.13;;;1.93;;
3847;SDS011;1939;48.720;9.166;2023-04-24T15:09:14;2.43;;;1.83;;
3847;SDS011;1939;48.720;9.166;2023-04-24T15:11:39;2.47;;;2.27;;
3847;SDS011;1939;48.720;9.166;2023-04-24T15:14:05;3.50;;;1.93;;
3847;SDS011;1939;48.720;9.166;2023-04-24T15:16:30;3.33;;;2.03;;